sensor_id;sensor_type;location;lat;lon;timestamp;pressure;altitude;pressure_sealevel;temperature;humidity
45357;BME280;31092;51.924;21.448;2023-05-22T00:00:02;100767.50;;;7.95;100.00
45357;BME280;31092;51.924;21.448;2023-05-22T00:02:31;100771.28;;;7.92;100.00
45357;BME280;31092;51.924;21.448;2023-05-22T00:04:57;100775.97;;;7.90;100.00
45357;BME280;31092;51.924;21.448;2023-05-22T00:07:24;100777.91;;;7.88;100.00
45357;BME280;31092;51.924;21.448;2023-05-22T00:09:51;100772.97;;;7.83;100.00
45357;BME280;31092;51.924;21.448;2023-05-22T00:12:17;100774.91;;;7.81;100.00
45357;BME280;31092;51.924;21.448;2023-05-22T00:14:43;100769.97;;;7.77;100.00
45357;BME280;31092;51.924;21.448;2023-05-22T00:17:08;100775.75;;;7.72;100.00
45357;BME280;31092;51.924;21.448;2023-05-22T00:19:34;100766.13;;;7.70;100.00
45357;BME280;31092;51.924;21.448;2023-05-22T00:21:59;100767.22;;;7.67;100.00
45357;BME280;31092;51.924;21.448;2023-05-22T00:24:25;100770.91;;;7.66;100.00
45357;BME280;31092;51.924;21.448;2023-05-22T00:26:50;100762.97;;;7.64;100.00
45357;BME280;31092;51.924;21.448;2023-05-22T00:29:15;100769.34;;;7.63;100.00
45357;BME280;31092;51.924;21.448;2023-05-22T00:31:41;100769.47;;;7.62;100.00
45357;BME280;31092;51.924;21.448;2023-05-22T00:34:06;100769.75;;;7.59;100.00
45357;BME280;31092;51.924;21.448;2023-05-22T00:36:31;100767.06;;;7.59;100.00
45357;BME280;31092;51.924;21.448;2023-05-22T00:38:57;100759.44;;;7.54;100.00
45357;BME280;31092;51.924;21.448;2023-05-22T00:41:22;100766.75;;;7.52;100.00
45357;BME280;31092;51.924;21.448;2023-05-22T00:43:47;100767.25;;;7.46;100.00
45357;BME280;31092;51.924;21.448;2023-05-22T00:46:15;100763.03;;;7.43;100.00
45357;BME280;31092;51.924;21.448;2023-05-22T00:48:47;100766.81;;;7.41;100.00
45357;BME280;31092;51.924;21.448;2023-05-22T00:51:13;100771.47;;;7.39;100.00
45357;BME280;31092;51.924;21.448;2023-05-22T00:53:38;100767.25;;;7.36;100.00
45357;BME280;31092;51.924;21.448;2023-05-22T00:56:04;100764.81;;;7.33;100.00
45357;BME280;31092;51.924;21.448;2023-05-22T00:58:31;100764.94;;;7.32;100.00
45357;BME280;31092;51.924;21.448;2023-05-22T01:00:56;100764.22;;;7.30;100.00
45357;BME280;31092;51.924;21.448;2023-05-22T01:03:22;100763.66;;;7.26;100.00
45357;BME280;31092;51.924;21.448;2023-05-22T01:05:50;100763.06;;;7.23;100.00
45357;BME280;31092;51.924;21.448;2023-05-22T01:08:15;100766.94;;;7.18;100.00
45357;BME280;31092;51.924;21.448;2023-05-22T01:10:40;100763.44;;;7.18;100.00
45357;BME280;31092;51.924;21.448;2023-05-22T01:18:38;100768.59;;;7.10;100.00
45357;BME280;31092;51.924;21.448;2023-05-22T01:21:07;100768.75;;;7.08;100.00
45357;BME280;31092;51.924;21.448;2023-05-22T01:33:21;100771.00;;;6.92;100.00
45357;BME280;31092;51.924;21.448;2023-05-22T01:35:50;100780.13;;;6.89;100.00
45357;BME280;31092;51.924;21.448;2023-05-22T01:38:18;100775.03;;;6.86;100.00
45357;BME280;31092;51.924;21.448;2023-05-22T01:40:44;100773.34;;;6.85;100.00
45357;BME280;31092;51.924;21.448;2023-05-22T01:43:11;100774.19;;;6.86;100.00
45357;BME280;31092;51.924;21.448;2023-05-22T01:45:37;100770.81;;;6.84;100.00
45357;BME280;31092;51.924;21.448;2023-05-22T01:48:02;100771.06;;;6.81;100.00
45357;BME280;31092;51.924;21.448;2023-05-22T01:50:28;100770.22;;;6.80;100.00
45357;BME280;31092;51.924;21.448;2023-05-22T01:58:40;100777.78;;;6.75;100.00
45357;BME280;31092;51.924;21.448;2023-05-22T02:01:09;100780.69;;;6.72;100.00
45357;BME280;31092;51.924;21.448;2023-05-22T02:03:36;100783.66;;;6.69;100.00
45357;BME280;31092;51.924;21.448;2023-05-22T02:06:08;100779.41;;;6.66;100.00
45357;BME280;31092;51.924;21.448;2023-05-22T02:08:37;100777.22;;;6.60;100.00
45357;BME280;31092;51.924;21.448;2023-05-22T02:11:04;100781.88;;;6.58;100.00
45357;BME280;31092;51.924;21.448;2023-05-22T02:13:30;100779.44;;;6.55;100.00
45357;BME280;31092;51.924;21.448;2023-05-22T02:15:56;100778.97;;;6.50;100.00
45357;BME280;31092;51.924;21.448;2023-05-22T02:18:25;100773.75;;;6.48;100.00
45357;BME280;31092;51.924;21.448;2023-05-22T02:20:54;100775.69;;;6.46;100.00
45357;BME280;31092;51.924;21.448;2023-05-22T02:23:19;100774.97;;;6.44;100.00
45357;BME280;31092;51.924;21.448;2023-05-22T02:25:44;100772.41;;;6.43;100.00
45357;BME280;31092;51.924;21.448;2023-05-22T02:28:10;100775.59;;;6.37;100.00
45357;BME280;31092;51.924;21.448;2023-05-22T02:30:35;100775.84;;;6.34;100.00
45357;BME280;31092;51.924;21.448;2023-05-22T02:33:00;100776.94;;;6.31;100.00
45357;BME280;31092;51.924;21.448;2023-05-22T02:35:29;100780.59;;;6.30;100.00
45357;BME280;31092;51.924;21.448;2023-05-22T02:37:54;100767.81;;;6.34;100.00
45357;BME280;31092;51.924;21.448;2023-05-22T02:40:20;100766.00;;;6.34;100.00
45357;BME280;31092;51.924;21.448;2023-05-22T02:42:45;100767.22;;;6.30;100.00
45357;BME280;31092;51.924;21.448;2023-05-22T02:45:11;100770.25;;;6.26;100.00
45357;BME280;31092;51.924;21.448;2023-05-22T02:47:36;100772.81;;;6.27;100.00
45357;BME280;31092;51.924;21.448;2023-05-22T02:50:01;100771.84;;;6.28;100.00
45357;BME280;31092;51.924;21.448;2023-05-22T02:52:27;100765.66;;;6.28;100.00
45357;BME280;31092;51.924;21.448;2023-05-22T02:54:53;100766.75;;;6.25;100.00
45357;BME280;31092;51.924;21.448;2023-05-22T02:57:18;100757.88;;;6.24;100.00
45357;BME280;31092;51.924;21.448;2023-05-22T02:59:44;100766.88;;;6.23;100.00
45357;BME280;31092;51.924;21.448;2023-05-22T03:02:09;100758.97;;;6.22;100.00
45357;BME280;31092;51.924;21.448;2023-05-22T03:04:36;100759.81;;;6.22;100.00
45357;BME280;31092;51.924;21.448;2023-05-22T03:07:02;100760.41;;;6.26;100.00
45357;BME280;31092;51.924;21.448;2023-05-22T03:09:28;100760.28;;;6.28;100.00
45357;BME280;31092;51.924;21.448;2023-05-22T03:11:53;100763.72;;;6.30;100.00
45357;BME280;31092;51.924;21.448;2023-05-22T03:14:18;100765.41;;;6.31;100.00
45357;BME280;31092;51.924;21.448;2023-05-22T03:16:44;100756.13;;;6.35;100.00
45357;BME280;31092;51.924;21.448;2023-05-22T03:19:13;100753.09;;;6.39;100.00
45357;BME280;31092;51.924;21.448;2023-05-22T03:21:39;100756.34;;;6.43;100.00
45357;BME280;31092;51.924;21.448;2023-05-22T03:24:04;100756.94;;;6.46;100.00
45357;BME280;31092;51.924;21.448;2023-05-22T03:26:30;100757.53;;;6.50;100.00
45357;BME280;31092;51.924;21.448;2023-05-22T03:28:55;100756.91;;;6.58;100.00
45357;BME280;31092;51.924;21.448;2023-05-22T03:31:21;100753.88;;;6.62;100.00
45357;BME280;31092;51.924;21.448;2023-05-22T03:33:47;100754.06;;;6.70;100.00
45357;BME280;31092;51.924;21.448;2023-05-22T03:36:12;100751.59;;;6.79;100.00
45357;BME280;31092;51.924;21.448;2023-05-22T03:38:37;100746.31;;;6.88;100.00
45357;BME280;31092;51.924;21.448;2023-05-22T03:41:03;100747.09;;;7.00;100.00
45357;BME280;31092;51.924;21.448;2023-05-22T03:43:28;100745.22;;;7.12;100.00
45357;BME280;31092;51.924;21.448;2023-05-22T03:45:53;100744.16;;;7.24;100.00
45357;BME280;31092;51.924;21.448;2023-05-22T03:48:19;100747.22;;;7.40;100.00
45357;BME280;31092;51.924;21.448;2023-05-22T03:50:44;100742.47;;;7.54;100.00
45357;BME280;31092;51.924;21.448;2023-05-22T03:53:09;100744.09;;;7.66;100.00
45357;BME280;31092;51.924;21.448;2023-05-22T03:55:35;100741.03;;;7.80;100.00
45357;BME280;31092;51.924;21.448;2023-05-22T03:58:00;100739.81;;;7.94;100.00
45357;BME280;31092;51.924;21.448;2023-05-22T04:00:25;100733.34;;;8.06;100.00
45357;BME280;31092;51.924;21.448;2023-05-22T04:02:51;100736.47;;;8.21;100.00
45357;BME280;31092;51.924;21.448;2023-05-22T04:05:16;100737.91;;;8.35;100.00
45357;BME280;31092;51.924;21.448;2023-05-22T04:07:41;100744.75;;;8.49;100.00
45357;BME280;31092;51.924;21.448;2023-05-22T04:10:07;100735.59;;;8.61;100.00
45357;BME280;31092;51.924;21.448;2023-05-22T04:12:32;100742.50;;;8.73;100.00
45357;BME280;31092;51.924;21.448;2023-05-22T04:14:58;100730.59;;;8.85;100.00
45357;BME280;31092;51.924;21.448;2023-05-22T04:17:24;100733.84;;;8.99;100.00
45357;BME280;31092;51.924;21.448;2023-05-22T04:19:50;100730.03;;;9.11;100.00
45357;BME280;31092;51.924;21.448;2023-05-22T04:22:15;100737.94;;;9.22;100.00
45357;BME280;31092;51.924;21.448;2023-05-22T04:24:41;100733.22;;;9.34;100.00
45357;BME280;31092;51.924;21.448;2023-05-22T04:27:06;100736.56;;;9.46;100.00
45357;BME280;31092;51.924;21.448;2023-05-22T04:29:32;100730.72;;;9.60;100.00
45357;BME280;31092;51.924;21.448;2023-05-22T04:32:00;100725.88;;;9.73;100.00
45357;BME280;31092;51.924;21.448;2023-05-22T04:34:25;100729.91;;;9.87;100.00
45357;BME280;31092;51.924;21.448;2023-05-22T04:36:51;100722.34;;;10.00;100.00
45357;BME280;31092;51.924;21.448;2023-05-22T04:39:16;100721.81;;;10.15;100.00
45357;BME280;31092;51.924;21.448;2023-05-22T04:41:42;100723.31;;;10.27;100.00
45357;BME280;31092;51.924;21.448;2023-05-22T04:44:07;100724.81;;;10.39;100.00
45357;BME280;31092;51.924;21.448;2023-05-22T04:46:32;100720.88;;;10.51;100.00
45357;BME280;31092;51.924;21.448;2023-05-22T04:49:01;100724.72;;;10.67;100.00
45357;BME280;31092;51.924;21.448;2023-05-22T04:51:27;100725.88;;;10.82;100.00
45357;BME280;31092;51.924;21.448;2023-05-22T04:53:53;100724.31;;;10.97;100.00
45357;BME280;31092;51.924;21.448;2023-05-22T04:56:19;100721.75;;;11.14;100.00
45357;BME280;31092;51.924;21.448;2023-05-22T04:58:45;100719.84;;;11.32;100.00
45357;BME280;31092;51.924;21.448;2023-05-22T05:01:12;100717.22;;;11.48;100.00
45357;BME280;31092;51.924;21.448;2023-05-22T05:03:38;100720.72;;;11.67;100.00
45357;BME280;31092;51.924;21.448;2023-05-22T05:06:03;100721.50;;;11.85;100.00
45357;BME280;31092;51.924;21.448;2023-05-22T05:08:29;100723.28;;;12.11;100.00
45357;BME280;31092;51.924;21.448;2023-05-22T05:10:54;100708.13;;;12.34;100.00
45357;BME280;31092;51.924;21.448;2023-05-22T05:13:19;100711.25;;;12.56;100.00
45357;BME280;31092;51.924;21.448;2023-05-22T05:15:45;100708.88;;;12.77;100.00
45357;BME280;31092;51.924;21.448;2023-05-22T05:18:10;100709.03;;;13.00;100.00
45357;BME280;31092;51.924;21.448;2023-05-22T05:20:39;100705.50;;;13.24;100.00
45357;BME280;31092;51.924;21.448;2023-05-22T05:23:08;100701.53;;;13.51;100.00
45357;BME280;31092;51.924;21.448;2023-05-22T05:25:34;100706.88;;;13.76;100.00
45357;BME280;31092;51.924;21.448;2023-05-22T05:28:02;100706.22;;;14.05;100.00
45357;BME280;31092;51.924;21.448;2023-05-22T05:30:29;100696.97;;;14.30;100.00
45357;BME280;31092;51.924;21.448;2023-05-22T05:33:16;100700.72;;;14.44;100.00
45357;BME280;31092;51.924;21.448;2023-05-22T05:35:41;100696.91;;;14.61;100.00
45357;BME280;31092;51.924;21.448;2023-05-22T05:38:07;100702.03;;;14.79;100.00
45357;BME280;31092;51.924;21.448;2023-05-22T05:44:04;100702.16;;;15.24;100.00
45357;BME280;31092;51.924;21.448;2023-05-22T05:46:30;100690.19;;;15.48;100.00
45357;BME280;31092;51.924;21.448;2023-05-22T05:49:07;100692.91;;;15.92;100.00
45357;BME280;31092;51.924;21.448;2023-05-22T05:51:51;100687.31;;;16.30;100.00
45357;BME280;31092;51.924;21.448;2023-05-22T05:54:16;100688.22;;;16.37;100.00
45357;BME280;31092;51.924;21.448;2023-05-22T05:56:42;100683.09;;;16.49;100.00
45357;BME280;31092;51.924;21.448;2023-05-22T05:59:07;100682.19;;;16.63;100.00
45357;BME280;31092;51.924;21.448;2023-05-22T06:01:33;100684.88;;;16.78;100.00
45357;BME280;31092;51.924;21.448;2023-05-22T06:03:59;100677.88;;;16.90;100.00
45357;BME280;31092;51.924;21.448;2023-05-22T06:06:29;100669.41;;;17.07;100.00
45357;BME280;31092;51.924;21.448;2023-05-22T06:08:59;100664.06;;;17.20;100.00
45357;BME280;31092;51.924;21.448;2023-05-22T06:11:25;100658.31;;;17.36;100.00
45357;BME280;31092;51.924;21.448;2023-05-22T06:13:50;100668.25;;;17.57;100.00
45357;BME280;31092;51.924;21.448;2023-05-22T06:16:15;100671.91;;;17.71;100.00
45357;BME280;31092;51.924;21.448;2023-05-22T06:18:41;100658.19;;;17.92;100.00
45357;BME280;31092;51.924;21.448;2023-05-22T06:21:06;100659.06;;;18.06;100.00
45357;BME280;31092;51.924;21.448;2023-05-22T06:23:32;100661.63;;;18.08;100.00
45357;BME280;31092;51.924;21.448;2023-05-22T06:25:57;100662.91;;;18.18;100.00
45357;BME280;31092;51.924;21.448;2023-05-22T06:28:23;100659.19;;;18.39;100.00
45357;BME280;31092;51.924;21.448;2023-05-22T06:30:51;100664.28;;;19.02;100.00
45357;BME280;31092;51.924;21.448;2023-05-22T06:33:16;100649.28;;;19.45;100.00
45357;BME280;31092;51.924;21.448;2023-05-22T06:35:42;100652.50;;;19.28;100.00
45357;BME280;31092;51.924;21.448;2023-05-22T06:38:08;100657.34;;;19.13;100.00
45357;BME280;31092;51.924;21.448;2023-05-22T06:40:33;100654.84;;;19.05;100.00
45357;BME280;31092;51.924;21.448;2023-05-22T06:42:59;100661.34;;;19.10;100.00
45357;BME280;31092;51.924;21.448;2023-05-22T06:45:25;100654.81;;;19.18;100.00
45357;BME280;31092;51.924;21.448;2023-05-22T06:47:53;100661.53;;;19.29;100.00
45357;BME280;31092;51.924;21.448;2023-05-22T06:50:19;100657.91;;;19.42;100.00
45357;BME280;31092;51.924;21.448;2023-05-22T06:52:45;100653.91;;;19.57;100.00
45357;BME280;31092;51.924;21.448;2023-05-22T06:55:10;100650.13;;;19.65;100.00
45357;BME280;31092;51.924;21.448;2023-05-22T06:57:35;100653.84;;;19.71;100.00
45357;BME280;31092;51.924;21.448;2023-05-22T07:00:01;100653.41;;;19.80;100.00
45357;BME280;31092;51.924;21.448;2023-05-22T07:02:31;100652.56;;;19.87;100.00
45357;BME280;31092;51.924;21.448;2023-05-22T07:04:56;100654.22;;;19.88;100.00
45357;BME280;31092;51.924;21.448;2023-05-22T07:07:22;100648.38;;;19.77;100.00
45357;BME280;31092;51.924;21.448;2023-05-22T07:09:47;100641.69;;;19.60;100.00
45357;BME280;31092;51.924;21.448;2023-05-22T07:12:13;100645.72;;;19.44;100.00
45357;BME280;31092;51.924;21.448;2023-05-22T07:14:38;100648.03;;;19.47;100.00
45357;BME280;31092;51.924;21.448;2023-05-22T07:17:04;100645.03;;;19.62;100.00
45357;BME280;31092;51.924;21.448;2023-05-22T07:19:29;100638.34;;;19.71;100.00
45357;BME280;31092;51.924;21.448;2023-05-22T07:21:54;100639.78;;;19.67;100.00
45357;BME280;31092;51.924;21.448;2023-05-22T07:24:20;100635.63;;;19.65;100.00
45357;BME280;31092;51.924;21.448;2023-05-22T07:26:45;100638.75;;;19.68;100.00
45357;BME280;31092;51.924;21.448;2023-05-22T07:29:11;100640.97;;;19.84;100.00
45357;BME280;31092;51.924;21.448;2023-05-22T07:31:38;100635.41;;;20.11;100.00
45357;BME280;31092;51.924;21.448;2023-05-22T07:34:03;100631.50;;;20.32;100.00
45357;BME280;31092;51.924;21.448;2023-05-22T07:36:29;100633.91;;;20.47;100.00
45357;BME280;31092;51.924;21.448;2023-05-22T07:38:56;100630.34;;;20.53;100.00
45357;BME280;31092;51.924;21.448;2023-05-22T07:41:21;100628.19;;;20.55;100.00
45357;BME280;31092;51.924;21.448;2023-05-22T07:43:48;100628.50;;;20.72;100.00
45357;BME280;31092;51.924;21.448;2023-05-22T07:46:13;100624.13;;;20.89;100.00
45357;BME280;31092;51.924;21.448;2023-05-22T07:48:39;100622.25;;;21.08;100.00
45357;BME280;31092;51.924;21.448;2023-05-22T07:51:04;100621.31;;;21.21;100.00
45357;BME280;31092;51.924;21.448;2023-05-22T07:53:30;100622.22;;;21.33;100.00
45357;BME280;31092;51.924;21.448;2023-05-22T07:55:55;100615.09;;;21.50;100.00
45357;BME280;31092;51.924;21.448;2023-05-22T07:58:21;100618.91;;;21.68;100.00
45357;BME280;31092;51.924;21.448;2023-05-22T08:00:48;100619.28;;;21.71;100.00
45357;BME280;31092;51.924;21.448;2023-05-22T08:03:13;100615.47;;;21.72;100.00
45357;BME280;31092;51.924;21.448;2023-05-22T08:05:39;100613.72;;;21.78;100.00
45357;BME280;31092;51.924;21.448;2023-05-22T08:08:04;100617.41;;;21.84;100.00
45357;BME280;31092;51.924;21.448;2023-05-22T08:10:30;100610.13;;;22.08;100.00
45357;BME280;31092;51.924;21.448;2023-05-22T08:12:55;100605.78;;;22.18;100.00
45357;BME280;31092;51.924;21.448;2023-05-22T08:15:22;100612.03;;;22.37;100.00
45357;BME280;31092;51.924;21.448;2023-05-22T08:17:48;100613.75;;;22.50;100.00
45357;BME280;31092;51.924;21.448;2023-05-22T08:20:13;100611.63;;;22.52;100.00
45357;BME280;31092;51.924;21.448;2023-05-22T08:22:38;100606.34;;;22.51;100.00
45357;BME280;31092;51.924;21.448;2023-05-22T08:25:05;100600.41;;;22.54;100.00
45357;BME280;31092;51.924;21.448;2023-05-22T08:27:30;100602.44;;;22.58;100.00
45357;BME280;31092;51.924;21.448;2023-05-22T08:29:56;100593.00;;;22.66;100.00
45357;BME280;31092;51.924;21.448;2023-05-22T08:32:21;100599.59;;;22.77;100.00
45357;BME280;31092;51.924;21.448;2023-05-22T08:34:46;100598.41;;;22.84;99.80
45357;BME280;31092;51.924;21.448;2023-05-22T08:37:12;100594.28;;;23.05;99.94
45357;BME280;31092;51.924;21.448;2023-05-22T08:39:40;100597.09;;;23.22;98.95
45357;BME280;31092;51.924;21.448;2023-05-22T08:42:06;100595.31;;;23.28;97.51
45357;BME280;31092;51.924;21.448;2023-05-22T08:44:32;100588.00;;;23.45;98.15
45357;BME280;31092;51.924;21.448;2023-05-22T08:46:59;100590.50;;;23.47;96.13
45357;BME280;31092;51.924;21.448;2023-05-22T08:49:24;100588.63;;;23.12;95.03
45357;BME280;31092;51.924;21.448;2023-05-22T08:51:58;100597.66;;;22.65;95.20
45357;BME280;31092;51.924;21.448;2023-05-22T08:54:25;100594.13;;;22.88;97.76
45357;BME280;31092;51.924;21.448;2023-05-22T08:56:50;100582.91;;;23.13;96.53
45357;BME280;31092;51.924;21.448;2023-05-22T08:59:17;100591.13;;;23.25;96.88
45357;BME280;31092;51.924;21.448;2023-05-22T09:01:43;100583.91;;;23.48;95.12
45357;BME280;31092;51.924;21.448;2023-05-22T09:04:09;100581.16;;;23.48;94.00
45357;BME280;31092;51.924;21.448;2023-05-22T09:06:35;100583.38;;;23.34;93.25
45357;BME280;31092;51.924;21.448;2023-05-22T09:09:02;100583.63;;;23.09;91.19
45357;BME280;31092;51.924;21.448;2023-05-22T09:11:28;100579.53;;;22.76;92.30
45357;BME280;31092;51.924;21.448;2023-05-22T09:14:05;100575.34;;;22.50;93.08
45357;BME280;31092;51.924;21.448;2023-05-22T09:16:30;100583.19;;;22.46;95.32
45357;BME280;31092;51.924;21.448;2023-05-22T09:18:55;100581.28;;;22.47;94.83
45357;BME280;31092;51.924;21.448;2023-05-22T09:21:21;100572.91;;;22.30;95.09
45357;BME280;31092;51.924;21.448;2023-05-22T09:23:51;100566.63;;;22.41;95.33
45357;BME280;31092;51.924;21.448;2023-05-22T09:26:16;100554.94;;;22.81;95.38
45357;BME280;31092;51.924;21.448;2023-05-22T09:28:42;100564.75;;;23.24;92.40
45357;BME280;31092;51.924;21.448;2023-05-22T09:31:08;100566.34;;;23.49;93.29
45357;BME280;31092;51.924;21.448;2023-05-22T09:33:33;100569.03;;;23.72;90.95
45357;BME280;31092;51.924;21.448;2023-05-22T09:36:01;100574.47;;;23.67;90.01
45357;BME280;31092;51.924;21.448;2023-05-22T09:38:28;100572.13;;;23.35;89.88
45357;BME280;31092;51.924;21.448;2023-05-22T09:40:53;100565.19;;;23.45;92.46
45357;BME280;31092;51.924;21.448;2023-05-22T09:43:20;100562.94;;;23.18;90.46
45357;BME280;31092;51.924;21.448;2023-05-22T09:45:46;100559.69;;;22.62;90.16
45357;BME280;31092;51.924;21.448;2023-05-22T09:48:11;100566.41;;;22.13;89.97
45357;BME280;31092;51.924;21.448;2023-05-22T09:50:40;100566.03;;;21.79;91.26
45357;BME280;31092;51.924;21.448;2023-05-22T09:53:06;100559.94;;;21.77;92.41
45357;BME280;31092;51.924;21.448;2023-05-22T09:55:32;100558.81;;;21.96;94.55
45357;BME280;31092;51.924;21.448;2023-05-22T09:58:01;100556.00;;;22.45;95.79
45357;BME280;31092;51.924;21.448;2023-05-22T10:00:27;100555.66;;;22.65;91.72
45357;BME280;31092;51.924;21.448;2023-05-22T10:02:56;100549.56;;;22.98;91.56
45357;BME280;31092;51.924;21.448;2023-05-22T10:05:23;100554.53;;;23.36;92.37
45357;BME280;31092;51.924;21.448;2023-05-22T10:07:55;100546.97;;;23.67;90.45
45357;BME280;31092;51.924;21.448;2023-05-22T10:10:21;100540.78;;;23.88;89.58
45357;BME280;31092;51.924;21.448;2023-05-22T10:12:49;100539.28;;;23.98;90.87
45357;BME280;31092;51.924;21.448;2023-05-22T10:15:16;100543.75;;;23.87;89.45
45357;BME280;31092;51.924;21.448;2023-05-22T10:17:41;100545.09;;;23.84;89.19
45357;BME280;31092;51.924;21.448;2023-05-22T10:20:08;100532.56;;;23.77;89.71
45357;BME280;31092;51.924;21.448;2023-05-22T10:22:35;100543.97;;;23.57;88.96
45357;BME280;31092;51.924;21.448;2023-05-22T10:25:01;100544.19;;;23.27;88.07
45357;BME280;31092;51.924;21.448;2023-05-22T10:27:26;100542.50;;;22.90;88.97
45357;BME280;31092;51.924;21.448;2023-05-22T10:30:05;100551.81;;;22.66;90.22
45357;BME280;31092;51.924;21.448;2023-05-22T10:32:39;100541.09;;;22.76;91.71
45357;BME280;31092;51.924;21.448;2023-05-22T10:40:13;100542.91;;;22.94;89.54
45357;BME280;31092;51.924;21.448;2023-05-22T10:42:40;100539.41;;;22.75;88.37
45357;BME280;31092;51.924;21.448;2023-05-22T10:45:07;100533.09;;;22.63;89.47
45357;BME280;31092;51.924;21.448;2023-05-22T10:47:32;100538.94;;;22.90;90.41
45357;BME280;31092;51.924;21.448;2023-05-22T10:50:16;100542.63;;;23.19;89.16
45357;BME280;31092;51.924;21.448;2023-05-22T10:52:41;100528.94;;;23.48;89.02
45357;BME280;31092;51.924;21.448;2023-05-22T10:55:07;100527.63;;;23.50;88.19
45357;BME280;31092;51.924;21.448;2023-05-22T10:57:33;100521.38;;;23.55;90.65
45357;BME280;31092;51.924;21.448;2023-05-22T11:02:37;100524.72;;;23.16;87.20
45357;BME280;31092;51.924;21.448;2023-05-22T11:05:35;100524.84;;;22.98;87.40
45357;BME280;31092;51.924;21.448;2023-05-22T11:08:07;100529.41;;;22.92;89.40
45357;BME280;31092;51.924;21.448;2023-05-22T11:13:17;100521.28;;;22.74;89.56
45357;BME280;31092;51.924;21.448;2023-05-22T11:15:42;100520.78;;;22.65;90.81
45357;BME280;31092;51.924;21.448;2023-05-22T11:18:09;100522.00;;;22.46;89.81
45357;BME280;31092;51.924;21.448;2023-05-22T11:20:36;100522.56;;;22.25;88.71
45357;BME280;31092;51.924;21.448;2023-05-22T11:23:05;100516.50;;;22.04;88.97
45357;BME280;31092;51.924;21.448;2023-05-22T11:25:34;100516.34;;;21.87;88.98
45357;BME280;31092;51.924;21.448;2023-05-22T11:28:02;100513.38;;;21.89;91.83
45357;BME280;31092;51.924;21.448;2023-05-22T11:30:28;100514.56;;;21.93;92.02
45357;BME280;31092;51.924;21.448;2023-05-22T11:33:00;100517.78;;;21.90;91.43
45357;BME280;31092;51.924;21.448;2023-05-22T11:35:25;100507.88;;;21.89;90.81
45357;BME280;31092;51.924;21.448;2023-05-22T11:37:51;100511.59;;;21.94;91.26
45357;BME280;31092;51.924;21.448;2023-05-22T11:40:18;100511.28;;;22.03;91.90
45357;BME280;31092;51.924;21.448;2023-05-22T11:42:45;100513.06;;;22.09;93.06
45357;BME280;31092;51.924;21.448;2023-05-22T11:45:10;100515.50;;;22.17;93.61
45357;BME280;31092;51.924;21.448;2023-05-22T11:47:36;100510.75;;;22.24;96.72
45357;BME280;31092;51.924;21.448;2023-05-22T11:50:02;100502.41;;;22.31;96.74
45357;BME280;31092;51.924;21.448;2023-05-22T11:52:31;100508.47;;;22.33;93.50
45357;BME280;31092;51.924;21.448;2023-05-22T11:54:57;100503.72;;;22.40;92.79
45357;BME280;31092;51.924;21.448;2023-05-22T11:57:22;100511.47;;;22.55;91.19
45357;BME280;31092;51.924;21.448;2023-05-22T11:59:48;100497.28;;;22.81;92.98
45357;BME280;31092;51.924;21.448;2023-05-22T12:02:17;100491.66;;;23.00;91.54
45357;BME280;31092;51.924;21.448;2023-05-22T12:04:42;100495.00;;;23.13;90.97
45357;BME280;31092;51.924;21.448;2023-05-22T12:07:08;100487.66;;;23.19;91.15
45357;BME280;31092;51.924;21.448;2023-05-22T12:09:33;100490.66;;;23.17;88.91
45357;BME280;31092;51.924;21.448;2023-05-22T12:11:59;100489.22;;;23.27;88.94
45357;BME280;31092;51.924;21.448;2023-05-22T12:14:27;100482.72;;;23.33;88.55
45357;BME280;31092;51.924;21.448;2023-05-22T12:16:54;100483.28;;;23.47;88.19
45357;BME280;31092;51.924;21.448;2023-05-22T12:19:20;100475.66;;;23.65;87.44
45357;BME280;31092;51.924;21.448;2023-05-22T12:21:45;100478.22;;;23.67;84.38
45357;BME280;31092;51.924;21.448;2023-05-22T12:24:11;100474.97;;;23.70;84.29
45357;BME280;31092;51.924;21.448;2023-05-22T12:26:36;100475.66;;;23.77;85.39
45357;BME280;31092;51.924;21.448;2023-05-22T12:29:04;100477.72;;;23.87;85.87
45357;BME280;31092;51.924;21.448;2023-05-22T12:31:33;100463.81;;;23.77;83.21
45357;BME280;31092;51.924;21.448;2023-05-22T12:34:05;100469.56;;;23.75;84.37
45357;BME280;31092;51.924;21.448;2023-05-22T12:36:34;100463.13;;;23.70;84.54
45357;BME280;31092;51.924;21.448;2023-05-22T12:39:05;100467.72;;;23.52;84.14
45357;BME280;31092;51.924;21.448;2023-05-22T12:41:31;100468.91;;;23.28;83.51
45357;BME280;31092;51.924;21.448;2023-05-22T12:43:56;100471.59;;;22.99;82.34
45357;BME280;31092;51.924;21.448;2023-05-22T12:46:21;100471.75;;;22.92;84.23
45357;BME280;31092;51.924;21.448;2023-05-22T12:48:47;100470.66;;;22.93;86.83
45357;BME280;31092;51.924;21.448;2023-05-22T12:51:12;100463.25;;;22.82;85.70
45357;BME280;31092;51.924;21.448;2023-05-22T12:53:37;100459.19;;;22.73;86.00
45357;BME280;31092;51.924;21.448;2023-05-22T12:56:03;100459.78;;;22.75;86.28
45357;BME280;31092;51.924;21.448;2023-05-22T12:58:33;100455.38;;;22.74;84.54
45357;BME280;31092;51.924;21.448;2023-05-22T13:00:58;100454.91;;;22.65;86.88
45357;BME280;31092;51.924;21.448;2023-05-22T13:03:24;100461.22;;;22.66;88.00
45357;BME280;31092;51.924;21.448;2023-05-22T13:05:49;100455.88;;;22.59;89.15
45357;BME280;31092;51.924;21.448;2023-05-22T13:08:14;100461.59;;;22.46;88.20